Terminal Aerodrome Forecast
Issued by NWS

Home | Current Version | Previous Version | Text Only | Print | Product List | Glossary On
Versions: 1 2 3 4 5 6 7 8 9 10 11 12 13 14 15 16
000
FTUS45 KRIW 011700
TAFCOD
TAF
KCOD 011735Z 0118/0218 01007KT P6SM VCSH SCT025 BKN040
     FM012100 28009KT P6SM VCSH SCT030 BKN050
     FM020100 VRB05KT P6SM SCT080
     FM020400 20006KT P6SM SKC
     FM020800 26014G22KT P6SM SCT130
      AMD LTD TO CLD VIS AND WIND=

USA.gov is the U.S. government's official web portal to all federal, state and local government web resources and services.